メインページ
METAR-TAF:

METAR-TAF

空港 :

パルマ・デ・マリョルカ, スペイン

パルマ・デ・マヨルカ空港

緯度: 39-33N, 経度: 002-44E, 海抜: 4m

現時点の気象観測

当レポートは37分前の23:00(UTC)に作成
北東の風 1kt
気温 9°C
湿度 93%
気圧 1018 hPa
視程10km以上
1,500メートル以下は雲なし、積乱雲なし

METAR: LEPA 232300Z 04001KT CAVOK 09/08 Q1018 NOSIG

時間: 01:37 (23:37 UTC)

予報

当レポートは6時間37分前の17:00(UTC)に作成
予報は23日の 18時(UTC)から 24日の 18時(UTC)まで有効
南/南西の風 10kt
視程10km以上
高度2000ftの雲はほとんどない
23日の 18時(UTC)から 23日の 20時(UTC)まで徐々に
北東の風 4kt
24日の 07時(UTC)から 24日の 11時(UTC)まで一時的に
東/北東の風 9kt
24日の 10時(UTC)から 24日の 12時(UTC)まで徐々に
南西の風 12kt

TAF: LEPA 231700Z 2318/2418 21010KT 9999 FEW020 TX24/2412Z TN08/2406Z BECMG 2318/2320 04004KT TEMPO 2407/2411 07009KT BECMG 2410/2412 22012KT

4,000以上の空港の気象観測と天気予報(METAR報とTAF報)

利用可能な観測所は地図上に黄色い丸と赤い丸で示す。

丸の上にカーソルを重ねると観測所名を参照できる。

次にクリックすると気象観測と天気予報を参照できる。

マップの切り替え:黒色「×」印の緑ボタンをクリックして拡大、「-」印の緑ボタンをクリックして縮小、緑色の三角印をクリックして隣りの地図に切り替え


METAR-TAF: